createdAt,value
2022-09-18T00:01:34.355Z,5.20
2022-09-18T00:04:37.469Z,7.30
2022-09-18T00:07:40.347Z,3.40
2022-09-18T00:10:46.644Z,8.10
2022-09-18T00:13:50.612Z,5.60
2022-09-18T00:16:53.548Z,5.20
2022-09-18T00:19:56.420Z,7.60
2022-09-18T00:22:59.308Z,6.80
2022-09-18T00:26:02.692Z,6.30
2022-09-18T00:29:06.107Z,5.70
2022-09-18T00:32:08.990Z,8.80
2022-09-18T00:35:11.882Z,6.00
2022-09-18T00:38:14.757Z,8.40
2022-09-18T00:41:19.026Z,6.80
2022-09-18T00:44:24.645Z,8.00
2022-09-18T00:47:33.150Z,6.50
2022-09-18T00:50:35.952Z,6.70
2022-09-18T00:53:44.450Z,7.80
2022-09-18T00:56:50.114Z,6.00
2022-09-18T00:59:54.695Z,5.60
2022-09-18T01:03:01.926Z,4.40
2022-09-18T01:06:16.834Z,6.20
2022-09-18T01:09:28.563Z,8.40
2022-09-18T01:12:43.593Z,13.40
2022-09-18T01:16:05.020Z,7.80
2022-09-18T01:19:28.561Z,7.20
2022-09-18T01:22:47.669Z,4.40
2022-09-18T01:26:23.363Z,5.90
2022-09-18T01:29:43.623Z,5.20
2022-09-18T01:32:54.014Z,7.70
2022-09-18T01:36:02.758Z,8.00
2022-09-18T01:39:21.254Z,7.70
2022-09-18T01:42:28.512Z,7.00
2022-09-18T01:45:34.893Z,6.40
2022-09-18T01:48:57.023Z,6.50
2022-09-18T01:52:09.416Z,6.10
2022-09-18T01:55:18.133Z,5.30
2022-09-18T01:58:24.969Z,5.40
2022-09-18T02:01:31.237Z,5.30
2022-09-18T02:04:38.734Z,5.00
2022-09-18T02:07:56.813Z,7.70
2022-09-18T02:11:12.499Z,7.30
2022-09-18T02:14:27.690Z,4.60
2022-09-18T02:18:05.726Z,8.00
2022-09-18T02:21:18.491Z,8.20
2022-09-18T02:24:24.684Z,7.80
2022-09-18T02:27:28.567Z,6.80
2022-09-18T02:30:32.843Z,12.20
2022-09-18T02:33:37.205Z,7.50
2022-09-18T02:37:06.271Z,3.20
2022-09-18T02:40:31.176Z,3.60
2022-09-18T02:43:49.829Z,3.00
2022-09-18T02:47:23.825Z,7.90
2022-09-18T02:50:45.007Z,6.60
2022-09-18T02:53:53.116Z,5.50
2022-09-18T02:57:09.506Z,8.00
2022-09-18T03:00:17.073Z,8.40
2022-09-18T03:03:27.117Z,5.80
2022-09-18T03:06:33.427Z,7.20
2022-09-18T03:09:37.347Z,5.80
2022-09-18T03:12:40.235Z,5.80
2022-09-18T03:15:43.917Z,8.60
2022-09-18T03:18:47.429Z,6.80
2022-09-18T03:21:51.295Z,6.30
2022-09-18T03:24:54.561Z,7.30
2022-09-18T03:27:57.631Z,7.80
2022-09-18T03:31:11.889Z,5.20
2022-09-18T03:34:14.903Z,7.80
2022-09-18T03:37:19.998Z,5.00
2022-09-18T03:40:23.268Z,6.30
2022-09-18T03:43:27.353Z,4.50
2022-09-18T03:46:30.567Z,6.40
2022-09-18T03:49:35.844Z,5.20
2022-09-18T03:52:39.585Z,7.60
2022-09-18T03:56:02.748Z,4.40
2022-09-18T03:59:24.346Z,5.90
2022-09-18T04:02:49.018Z,4.40
2022-09-18T04:06:12.326Z,5.40
2022-09-18T04:09:34.465Z,8.00
2022-09-18T04:12:37.406Z,5.10
2022-09-18T04:16:02.327Z,5.80
2022-09-18T04:19:05.229Z,3.60
2022-09-18T04:22:08.226Z,4.30
2022-09-18T04:25:13.341Z,6.10
2022-09-18T04:28:16.368Z,5.90
2022-09-18T04:31:21.103Z,5.00
2022-09-18T04:34:24.230Z,5.20
2022-09-18T04:37:30.064Z,4.40
2022-09-18T04:40:33.653Z,6.10
2022-09-18T04:43:36.649Z,3.60
2022-09-18T04:46:41.316Z,4.40
2022-09-18T04:49:44.247Z,4.80
2022-09-18T04:52:47.205Z,4.30
2022-09-18T04:55:50.215Z,3.90
2022-09-18T04:58:53.983Z,3.10
2022-09-18T05:01:58.847Z,5.60
2022-09-18T05:05:02.548Z,3.00
2022-09-18T05:08:09.804Z,4.00
2022-09-18T05:11:13.093Z,5.90
2022-09-18T05:14:16.130Z,6.00
2022-09-18T05:17:21.945Z,5.90
2022-09-18T05:20:35.768Z,5.50
2022-09-18T05:23:42.583Z,10.50
2022-09-18T05:26:46.660Z,13.30
2022-09-18T05:29:50.633Z,9.00
2022-09-18T05:32:59.202Z,6.00
2022-09-18T05:36:04.896Z,7.80
2022-09-18T05:39:07.852Z,5.90
2022-09-18T05:42:11.058Z,7.50
2022-09-18T05:45:15.154Z,6.70
2022-09-18T05:48:18.196Z,8.60
2022-09-18T05:51:21.155Z,8.50
2022-09-18T05:54:24.136Z,7.80
2022-09-18T05:57:27.573Z,12.50
2022-09-18T06:00:32.849Z,8.70
2022-09-18T06:03:39.729Z,8.00
2022-09-18T06:06:43.148Z,8.70
2022-09-18T06:09:46.303Z,7.70
2022-09-18T06:12:49.506Z,7.20
2022-09-18T06:15:52.547Z,7.60
2022-09-18T06:19:03.473Z,9.50
2022-09-18T06:22:06.502Z,6.60
2022-09-18T06:25:10.442Z,7.70
2022-09-18T06:28:13.860Z,5.80
2022-09-18T06:31:16.969Z,7.40
2022-09-18T06:34:29.366Z,4.30
2022-09-18T06:37:35.839Z,5.60
2022-09-18T06:40:54.621Z,6.50
2022-09-18T06:44:04.318Z,6.30
2022-09-18T06:47:18.659Z,6.70
2022-09-18T06:50:23.249Z,8.00
2022-09-18T06:53:26.752Z,5.10
2022-09-18T06:56:33.040Z,6.00
2022-09-18T06:59:37.831Z,7.30
2022-09-18T07:02:41.980Z,6.60
2022-09-18T07:06:17.031Z,7.50
2022-09-18T07:09:22.610Z,5.70
2022-09-18T07:12:29.406Z,6.50
2022-09-18T07:15:32.394Z,4.90
2022-09-18T07:18:35.395Z,4.30
2022-09-18T07:21:40.177Z,4.90
2022-09-18T07:24:43.466Z,6.90
2022-09-18T07:27:46.385Z,4.10
2022-09-18T07:30:50.068Z,4.30
2022-09-18T07:33:55.084Z,9.30
2022-09-18T07:37:01.420Z,4.40
2022-09-18T07:40:05.652Z,4.90
2022-09-18T07:43:43.924Z,5.10
2022-09-18T07:46:47.923Z,7.30
2022-09-18T07:49:51.241Z,4.80
2022-09-18T07:52:59.551Z,4.40
2022-09-18T07:56:12.103Z,4.40
2022-09-18T07:59:16.819Z,5.50
2022-09-18T08:02:20.338Z,3.50
2022-09-18T08:05:23.544Z,4.30
2022-09-18T08:08:36.182Z,3.30
2022-09-18T08:11:59.497Z,2.80
2022-09-18T08:15:08.890Z,3.40
2022-09-18T08:18:22.060Z,4.10
2022-09-18T08:21:36.250Z,2.20
2022-09-18T08:24:44.312Z,3.90
2022-09-18T08:27:48.010Z,4.10
2022-09-18T08:30:58.059Z,4.60
2022-09-18T08:34:02.079Z,7.70
2022-09-18T08:37:06.788Z,3.80
2022-09-18T08:40:55.402Z,2.50
2022-09-18T08:44:10.148Z,1.30
2022-09-18T08:47:22.643Z,2.90
2022-09-18T08:50:40.856Z,1.80
2022-09-18T08:53:54.068Z,1.80
2022-09-18T08:57:19.781Z,1.60
2022-09-18T09:00:48.982Z,1.70
2022-09-18T09:04:24.657Z,3.20
2022-09-18T09:07:29.456Z,3.70
2022-09-18T09:10:48.169Z,3.80
2022-09-18T09:14:34.323Z,2.90
2022-09-18T09:18:15.477Z,2.50
2022-09-18T09:21:23.195Z,5.80
2022-09-18T09:24:32.126Z,2.50
2022-09-18T09:27:52.723Z,0.90
2022-09-18T09:31:28.447Z,1.40
2022-09-18T09:34:57.405Z,2.50
2022-09-18T09:38:30.303Z,1.50
2022-09-18T09:41:49.632Z,2.50
2022-09-18T09:45:02.679Z,2.10
2022-09-18T09:48:26.556Z,0.70
2022-09-18T09:51:49.204Z,3.20
2022-09-18T09:54:57.231Z,2.00
2022-09-18T09:58:30.776Z,1.20
2022-09-18T10:01:58.157Z,4.40
2022-09-18T10:05:11.168Z,2.40
2022-09-18T10:08:43.060Z,3.20
2022-09-18T10:12:10.325Z,2.40
2022-09-18T10:15:19.633Z,9.90
2022-09-18T10:18:27.866Z,2.50
2022-09-18T10:21:36.260Z,3.00
2022-09-18T10:24:53.868Z,1.50
2022-09-18T10:27:59.192Z,2.70
2022-09-18T10:31:10.714Z,1.60
2022-09-18T10:34:49.918Z,2.10
2022-09-18T10:37:56.621Z,1.30
2022-09-18T10:41:29.314Z,2.00
2022-09-18T10:44:39.823Z,2.40
2022-09-18T10:47:50.173Z,2.30
2022-09-18T10:50:54.288Z,1.90
2022-09-18T10:54:16.167Z,1.10
2022-09-18T10:58:02.154Z,2.70
2022-09-18T11:01:08.345Z,1.30
2022-09-18T11:04:17.642Z,1.60
2022-09-18T11:07:25.844Z,1.70
2022-09-18T11:14:05.991Z,1.50
2022-09-18T11:17:24.531Z,1.80
2022-09-18T11:20:30.452Z,2.10
2022-09-18T11:23:46.171Z,1.60
2022-09-18T11:26:55.292Z,1.60
2022-09-18T11:30:14.955Z,1.30
2022-09-18T11:33:42.248Z,1.60
2022-09-18T11:36:50.403Z,1.00
2022-09-18T11:40:01.172Z,1.40
2022-09-18T11:43:22.591Z,1.40
2022-09-18T11:46:31.949Z,1.20
2022-09-18T11:49:46.168Z,0.70
2022-09-18T11:53:02.270Z,2.30
2022-09-18T11:56:08.451Z,0.90
2022-09-18T11:59:31.718Z,0.60
2022-09-18T12:02:58.055Z,0.90
2022-09-18T12:06:10.921Z,0.50
2022-09-18T12:09:21.741Z,0.90
2022-09-18T12:12:38.348Z,1.10
2022-09-18T12:15:49.623Z,0.90
2022-09-18T12:18:59.747Z,1.30
2022-09-18T12:22:20.344Z,1.40
2022-09-18T12:25:44.480Z,1.20
2022-09-18T12:29:17.017Z,2.40
2022-09-18T12:32:43.104Z,0.90
2022-09-18T12:36:04.918Z,0.90
2022-09-18T12:39:22.959Z,1.50
2022-09-18T12:42:38.880Z,0.80
2022-09-18T12:46:03.613Z,2.80
2022-09-18T12:49:12.067Z,1.40
2022-09-18T12:53:10.336Z,1.70
2022-09-18T12:56:25.649Z,1.80
2022-09-18T12:59:50.323Z,1.30
2022-09-18T13:03:29.230Z,1.90
2022-09-18T13:06:45.810Z,1.50
2022-09-18T13:10:02.141Z,1.00
2022-09-18T13:13:26.616Z,2.30
2022-09-18T13:16:50.029Z,2.50
2022-09-18T13:19:59.785Z,1.50
2022-09-18T13:23:03.195Z,2.20
2022-09-18T13:26:14.845Z,1.40
2022-09-18T13:29:51.590Z,2.00
2022-09-18T13:32:57.194Z,4.10
2022-09-18T13:36:00.314Z,4.40
2022-09-18T13:39:27.064Z,12.30
2022-09-18T13:42:33.665Z,6.90
2022-09-18T13:45:38.848Z,4.10
2022-09-18T13:48:45.840Z,5.10
2022-09-18T13:51:49.478Z,8.80
2022-09-18T13:55:11.233Z,5.60
2022-09-18T13:58:46.254Z,4.90
2022-09-18T14:01:55.224Z,5.60
2022-09-18T14:05:04.480Z,7.10
2022-09-18T14:08:21.465Z,4.50
2022-09-18T14:11:25.243Z,4.90
2022-09-18T14:14:33.973Z,7.80
2022-09-18T14:17:38.790Z,4.90
2022-09-18T14:20:52.426Z,6.40
2022-09-18T14:24:23.398Z,6.70
2022-09-18T14:27:38.880Z,9.00
2022-09-18T14:30:41.742Z,10.00
2022-09-18T14:33:45.791Z,7.10
2022-09-18T14:36:55.262Z,9.10
2022-09-18T14:39:59.087Z,8.40
2022-09-18T14:43:15.113Z,6.30
2022-09-18T14:46:20.403Z,6.20
2022-09-18T14:49:28.106Z,7.10
2022-09-18T14:52:41.122Z,10.10
2022-09-18T14:55:49.697Z,8.90
2022-09-18T14:58:52.942Z,6.90
2022-09-18T15:02:20.563Z,11.20
2022-09-18T15:05:23.641Z,12.60
2022-09-18T15:08:27.054Z,8.10
2022-09-18T15:11:42.009Z,8.10
2022-09-18T15:14:53.848Z,6.40
2022-09-18T15:17:58.351Z,6.60
2022-09-18T15:21:03.941Z,10.50
2022-09-18T15:24:16.602Z,5.60
2022-09-18T15:27:21.606Z,8.70
2022-09-18T15:30:25.777Z,5.60
2022-09-18T15:33:29.381Z,8.90
2022-09-18T15:36:36.272Z,7.90
2022-09-18T15:39:42.607Z,6.20
2022-09-18T15:43:07.107Z,8.90
2022-09-18T15:46:13.150Z,7.80
2022-09-18T15:49:30.800Z,8.30
2022-09-18T15:52:41.566Z,7.50
2022-09-18T15:55:56.516Z,9.40
2022-09-18T15:59:03.593Z,9.50
2022-09-18T16:02:29.402Z,8.50
2022-09-18T16:05:35.587Z,8.80
2022-09-18T16:08:39.012Z,9.80
2022-09-18T16:11:46.284Z,9.30
2022-09-18T16:15:16.495Z,12.10
2022-09-18T16:18:25.800Z,11.80
2022-09-18T16:21:30.692Z,13.00
2022-09-18T16:24:37.966Z,12.80
2022-09-18T16:27:46.879Z,9.40
2022-09-18T16:30:49.965Z,9.60
2022-09-18T16:33:57.210Z,10.80
2022-09-18T16:37:00.375Z,11.60
2022-09-18T16:40:05.372Z,13.50
2022-09-18T16:43:08.421Z,11.30
2022-09-18T16:46:14.562Z,8.60
2022-09-18T16:49:20.626Z,10.60
2022-09-18T16:52:23.727Z,12.20
2022-09-18T16:55:27.058Z,9.00
2022-09-18T16:58:30.306Z,9.70
2022-09-18T17:02:00.101Z,12.00
2022-09-18T17:05:03.382Z,13.30
2022-09-18T17:08:06.696Z,14.30
2022-09-18T17:11:09.924Z,16.90
2022-09-18T17:14:12.994Z,13.60
2022-09-18T17:17:16.340Z,13.60
2022-09-18T17:20:19.543Z,13.50
2022-09-18T17:23:22.709Z,17.20
2022-09-18T17:26:28.766Z,16.40
2022-09-18T17:29:32.404Z,16.10
2022-09-18T17:32:36.753Z,17.70
2022-09-18T17:35:39.718Z,13.60
2022-09-18T17:38:45.274Z,12.40
2022-09-18T17:41:48.505Z,12.50
2022-09-18T17:44:52.590Z,13.30
2022-09-18T17:47:57.598Z,15.00
2022-09-18T17:51:04.263Z,10.70
2022-09-18T17:54:08.489Z,11.80
2022-09-18T17:57:12.144Z,12.10
2022-09-18T18:00:20.067Z,12.50
2022-09-18T18:03:25.986Z,14.70
2022-09-18T18:06:31.319Z,12.70
2022-09-18T18:09:39.192Z,15.50
2022-09-18T18:12:43.779Z,14.10
2022-09-18T18:15:49.850Z,15.50
2022-09-18T18:19:04.736Z,18.20
2022-09-18T18:22:08.280Z,19.80
2022-09-18T18:25:13.253Z,22.80
2022-09-18T18:28:16.925Z,20.30
2022-09-18T18:31:19.968Z,22.70
2022-09-18T18:34:25.751Z,18.70
2022-09-18T18:37:31.936Z,21.30
2022-09-18T18:40:40.081Z,16.40
2022-09-18T18:43:45.433Z,17.60
2022-09-18T18:46:52.040Z,16.90
2022-09-18T18:49:57.499Z,17.30
2022-09-18T18:53:01.345Z,13.80
2022-09-18T18:56:09.305Z,16.00
2022-09-18T18:59:21.610Z,17.70
2022-09-18T19:02:27.849Z,14.70
2022-09-18T19:05:35.438Z,14.60
2022-09-18T19:08:39.233Z,15.00
2022-09-18T19:11:49.945Z,13.70
2022-09-18T19:18:02.768Z,12.20
2022-09-18T19:21:08.121Z,11.40
2022-09-18T19:24:13.601Z,13.80
2022-09-18T19:27:19.599Z,9.30
2022-09-18T19:30:24.628Z,12.70
2022-09-18T19:33:34.701Z,12.30
2022-09-18T19:36:38.658Z,11.00
2022-09-18T19:39:47.445Z,8.80
2022-09-18T19:42:57.748Z,12.30
2022-09-18T19:46:02.732Z,13.60
2022-09-18T19:49:06.413Z,12.20
2022-09-18T19:52:21.717Z,10.80
2022-09-18T19:55:25.824Z,11.20
2022-09-18T19:58:28.808Z,9.20
2022-09-18T20:01:31.701Z,11.60
2022-09-18T20:04:38.079Z,10.40
2022-09-18T20:07:46.935Z,7.60
2022-09-18T20:10:50.397Z,9.90
2022-09-18T20:13:53.720Z,10.80
2022-09-18T20:16:56.777Z,12.20
2022-09-18T20:19:59.749Z,10.90
2022-09-18T20:23:03.284Z,11.20
2022-09-18T20:26:15.744Z,12.80
2022-09-18T20:32:21.617Z,14.90
2022-09-18T20:35:24.664Z,14.60
2022-09-18T20:38:37.113Z,12.30
2022-09-18T20:41:40.708Z,18.90
2022-09-18T20:44:43.647Z,20.50
2022-09-18T20:47:47.298Z,15.50
2022-09-18T20:50:50.149Z,11.90
2022-09-18T20:53:57.292Z,11.00
2022-09-18T20:57:01.354Z,18.20
2022-09-18T21:00:06.652Z,17.80
2022-09-18T21:03:09.536Z,13.60
2022-09-18T21:06:22.451Z,15.40
2022-09-18T21:09:28.221Z,10.00
2022-09-18T21:12:35.199Z,9.70
2022-09-18T21:15:38.021Z,8.70
2022-09-18T21:18:41.589Z,7.60
2022-09-18T21:21:44.474Z,6.90
2022-09-18T21:24:47.308Z,8.40
2022-09-18T21:27:53.964Z,8.10
2022-09-18T21:31:11.799Z,9.70
2022-09-18T21:34:17.493Z,10.30
2022-09-18T21:37:20.338Z,10.40
2022-09-18T21:40:24.195Z,12.80
2022-09-18T21:43:27.221Z,10.20
2022-09-18T21:46:30.268Z,7.20
2022-09-18T21:49:33.797Z,9.70
2022-09-18T21:52:36.622Z,6.90
2022-09-18T21:55:39.657Z,7.30
2022-09-18T21:58:45.112Z,8.40
2022-09-18T22:01:49.112Z,8.00
2022-09-18T22:04:55.067Z,7.90
2022-09-18T22:07:57.930Z,10.40
2022-09-18T22:11:02.964Z,5.60
2022-09-18T22:14:09.973Z,7.30
2022-09-18T22:17:12.814Z,8.30
2022-09-18T22:20:16.504Z,6.30
2022-09-18T22:23:19.409Z,6.70
2022-09-18T22:26:24.949Z,6.10
2022-09-18T22:29:31.241Z,5.40
2022-09-18T22:32:34.140Z,4.50
2022-09-18T22:35:37.016Z,6.40
2022-09-18T22:38:39.860Z,4.70
2022-09-18T22:41:43.922Z,5.10
2022-09-18T22:44:46.794Z,7.00
2022-09-18T22:47:49.651Z,5.60
2022-09-18T22:50:52.495Z,6.60
2022-09-18T22:53:58.975Z,8.50
2022-09-18T22:57:01.896Z,5.10
2022-09-18T23:00:05.568Z,5.90
2022-09-18T23:03:08.465Z,6.40
2022-09-18T23:06:12.437Z,5.40
2022-09-18T23:09:16.991Z,3.40
2022-09-18T23:12:19.829Z,4.20
2022-09-18T23:15:22.669Z,4.30
2022-09-18T23:18:25.509Z,3.40
2022-09-18T23:21:32.119Z,4.70
2022-09-18T23:24:35.056Z,4.00
2022-09-18T23:27:37.893Z,2.40
2022-09-18T23:30:40.758Z,2.20
2022-09-18T23:33:48.670Z,3.10
2022-09-18T23:36:54.271Z,1.90
2022-09-18T23:39:57.133Z,2.10
2022-09-18T23:42:59.983Z,2.90
2022-09-18T23:46:05.070Z,2.00
2022-09-18T23:49:09.410Z,3.40
2022-09-18T23:52:12.389Z,1.40
2022-09-18T23:55:15.323Z,2.80
2022-09-18T23:58:18.836Z,2.20
